Terminal Aerodrome Forecast
Issued by NWS

Home | Current Version | Previous Version | Text Only | Print | Product List | Glossary On
Versions: 1 2 3 4 5 6 7 8 9 10 11 12 13 14 15 16 17 18 19 20 21 22
000
FTUS44 KHGX 251720
TAFSGR
TAF
KSGR 251720Z 2518/2618 19014G24KT P6SM SKC
     FM260300 17013KT P6SM SKC
     FM260800 17012KT P6SM SCT015
     FM261100 18009KT P6SM BKN015 BKN025
     FM261700 19013G23KT P6SM SCT015 BKN025=

USA.gov is the U.S. government's official web portal to all federal, state and local government web resources and services.